sensor_id;sensor_type;location;lat;lon;timestamp;P1;durP1;ratioP1;P2;durP2;ratioP2
61840;SDS011;47773;53.174;6.614;2024-01-27T00:01:11;38.58;;;3.33;;
61840;SDS011;47773;53.174;6.614;2024-01-27T00:03:36;37.05;;;4.32;;
61840;SDS011;47773;53.174;6.614;2024-01-27T00:06:02;26.88;;;2.90;;
61840;SDS011;47773;53.174;6.614;2024-01-27T00:08:27;30.42;;;3.50;;
61840;SDS011;47773;53.174;6.614;2024-01-27T00:10:53;24.42;;;3.00;;
61840;SDS011;47773;53.174;6.614;2024-01-27T00:13:19;33.55;;;3.25;;
61840;SDS011;47773;53.174;6.614;2024-01-27T00:15:44;24.88;;;3.40;;
61840;SDS011;47773;53.174;6.614;2024-01-27T00:18:10;34.33;;;2.72;;
61840;SDS011;47773;53.174;6.614;2024-01-27T00:20:36;25.92;;;3.17;;
61840;SDS011;47773;53.174;6.614;2024-01-27T00:23:02;25.95;;;2.90;;
61840;SDS011;47773;53.174;6.614;2024-01-27T00:25:28;30.85;;;3.05;;
61840;SDS011;47773;53.174;6.614;2024-01-27T00:27:54;26.08;;;3.45;;
61840;SDS011;47773;53.174;6.614;2024-01-27T00:30:20;20.88;;;3.33;;
61840;SDS011;47773;53.174;6.614;2024-01-27T00:32:45;30.33;;;4.45;;
61840;SDS011;47773;53.174;6.614;2024-01-27T00:35:11;27.58;;;2.95;;
61840;SDS011;47773;53.174;6.614;2024-01-27T00:37:40;23.63;;;2.97;;
61840;SDS011;47773;53.174;6.614;2024-01-27T00:40:09;34.45;;;3.97;;
61840;SDS011;47773;53.174;6.614;2024-01-27T00:42:36;28.73;;;3.22;;
61840;SDS011;47773;53.174;6.614;2024-01-27T00:45:03;22.60;;;3.00;;
61840;SDS011;47773;53.174;6.614;2024-01-27T00:47:30;22.88;;;2.45;;
61840;SDS011;47773;53.174;6.614;2024-01-27T00:49:56;20.50;;;3.30;;
61840;SDS011;47773;53.174;6.614;2024-01-27T00:52:22;25.88;;;3.15;;
61840;SDS011;47773;53.174;6.614;2024-01-27T00:54:47;27.90;;;2.80;;
61840;SDS011;47773;53.174;6.614;2024-01-27T00:57:13;26.15;;;3.55;;
61840;SDS011;47773;53.174;6.614;2024-01-27T00:59:38;26.40;;;2.72;;
61840;SDS011;47773;53.174;6.614;2024-01-27T01:02:05;22.83;;;2.47;;
61840;SDS011;47773;53.174;6.614;2024-01-27T01:04:31;28.15;;;3.30;;
61840;SDS011;47773;53.174;6.614;2024-01-27T01:06:57;23.92;;;2.72;;
61840;SDS011;47773;53.174;6.614;2024-01-27T01:09:23;23.25;;;2.80;;
61840;SDS011;47773;53.174;6.614;2024-01-27T01:11:49;26.45;;;3.00;;
61840;SDS011;47773;53.174;6.614;2024-01-27T01:14:14;25.90;;;2.95;;
61840;SDS011;47773;53.174;6.614;2024-01-27T01:16:40;25.40;;;3.08;;
61840;SDS011;47773;53.174;6.614;2024-01-27T01:19:06;24.65;;;2.80;;
61840;SDS011;47773;53.174;6.614;2024-01-27T01:21:32;29.77;;;2.75;;
61840;SDS011;47773;53.174;6.614;2024-01-27T01:23:57;18.20;;;2.58;;
61840;SDS011;47773;53.174;6.614;2024-01-27T01:26:24;18.83;;;2.50;;
61840;SDS011;47773;53.174;6.614;2024-01-27T01:28:50;27.35;;;2.67;;
61840;SDS011;47773;53.174;6.614;2024-01-27T01:31:15;19.55;;;2.45;;
61840;SDS011;47773;53.174;6.614;2024-01-27T01:33:42;23.23;;;3.05;;
61840;SDS011;47773;53.174;6.614;2024-01-27T01:36:08;22.25;;;3.03;;
61840;SDS011;47773;53.174;6.614;2024-01-27T01:38:33;23.30;;;2.60;;
61840;SDS011;47773;53.174;6.614;2024-01-27T01:40:59;28.33;;;3.22;;
61840;SDS011;47773;53.174;6.614;2024-01-27T01:43:31;36.47;;;4.13;;
61840;SDS011;47773;53.174;6.614;2024-01-27T01:45:56;33.40;;;3.00;;
61840;SDS011;47773;53.174;6.614;2024-01-27T01:48:22;27.08;;;3.22;;
61840;SDS011;47773;53.174;6.614;2024-01-27T01:50:48;28.92;;;2.65;;
61840;SDS011;47773;53.174;6.614;2024-01-27T01:53:15;26.35;;;3.53;;
61840;SDS011;47773;53.174;6.614;2024-01-27T01:55:41;22.88;;;2.47;;
61840;SDS011;47773;53.174;6.614;2024-01-27T01:58:07;26.98;;;3.15;;
61840;SDS011;47773;53.174;6.614;2024-01-27T02:00:33;25.63;;;2.75;;
61840;SDS011;47773;53.174;6.614;2024-01-27T02:02:59;24.23;;;2.70;;
61840;SDS011;47773;53.174;6.614;2024-01-27T02:05:24;23.55;;;3.08;;
61840;SDS011;47773;53.174;6.614;2024-01-27T02:07:50;15.30;;;2.70;;
61840;SDS011;47773;53.174;6.614;2024-01-27T02:10:16;25.00;;;3.08;;
61840;SDS011;47773;53.174;6.614;2024-01-27T02:12:43;19.92;;;2.53;;
61840;SDS011;47773;53.174;6.614;2024-01-27T02:15:09;28.77;;;2.85;;
61840;SDS011;47773;53.174;6.614;2024-01-27T02:17:37;19.83;;;2.60;;
61840;SDS011;47773;53.174;6.614;2024-01-27T02:20:03;21.13;;;2.95;;
61840;SDS011;47773;53.174;6.614;2024-01-27T02:22:30;25.65;;;2.92;;
61840;SDS011;47773;53.174;6.614;2024-01-27T02:24:55;20.85;;;3.20;;
61840;SDS011;47773;53.174;6.614;2024-01-27T02:27:21;25.65;;;2.95;;
61840;SDS011;47773;53.174;6.614;2024-01-27T02:29:46;23.55;;;2.88;;
61840;SDS011;47773;53.174;6.614;2024-01-27T02:32:12;25.27;;;2.95;;
61840;SDS011;47773;53.174;6.614;2024-01-27T02:34:38;20.90;;;3.42;;
61840;SDS011;47773;53.174;6.614;2024-01-27T02:37:03;21.23;;;3.50;;
61840;SDS011;47773;53.174;6.614;2024-01-27T02:39:30;19.25;;;3.55;;
61840;SDS011;47773;53.174;6.614;2024-01-27T02:41:55;28.52;;;3.42;;
61840;SDS011;47773;53.174;6.614;2024-01-27T02:44:21;22.88;;;2.78;;
61840;SDS011;47773;53.174;6.614;2024-01-27T02:46:47;28.83;;;2.65;;
61840;SDS011;47773;53.174;6.614;2024-01-27T02:49:12;17.10;;;2.83;;
61840;SDS011;47773;53.174;6.614;2024-01-27T02:51:38;24.17;;;3.40;;
61840;SDS011;47773;53.174;6.614;2024-01-27T02:54:03;21.88;;;3.05;;
61840;SDS011;47773;53.174;6.614;2024-01-27T02:56:29;30.77;;;3.80;;
61840;SDS011;47773;53.174;6.614;2024-01-27T02:58:55;26.73;;;2.83;;
61840;SDS011;47773;53.174;6.614;2024-01-27T03:01:20;20.58;;;2.42;;
61840;SDS011;47773;53.174;6.614;2024-01-27T03:03:46;23.90;;;3.05;;
61840;SDS011;47773;53.174;6.614;2024-01-27T03:06:12;22.10;;;2.58;;
61840;SDS011;47773;53.174;6.614;2024-01-27T03:08:37;23.75;;;2.90;;
61840;SDS011;47773;53.174;6.614;2024-01-27T03:11:03;25.75;;;2.88;;
61840;SDS011;47773;53.174;6.614;2024-01-27T03:13:29;20.95;;;2.78;;
61840;SDS011;47773;53.174;6.614;2024-01-27T03:15:55;24.42;;;3.25;;
61840;SDS011;47773;53.174;6.614;2024-01-27T03:18:21;21.02;;;3.22;;
61840;SDS011;47773;53.174;6.614;2024-01-27T03:20:46;21.23;;;3.20;;
61840;SDS011;47773;53.174;6.614;2024-01-27T03:23:12;27.98;;;3.20;;
61840;SDS011;47773;53.174;6.614;2024-01-27T03:25:38;19.77;;;2.80;;
61840;SDS011;47773;53.174;6.614;2024-01-27T03:28:04;23.35;;;2.55;;
61840;SDS011;47773;53.174;6.614;2024-01-27T03:30:29;22.10;;;2.95;;
61840;SDS011;47773;53.174;6.614;2024-01-27T03:32:55;22.85;;;2.75;;
61840;SDS011;47773;53.174;6.614;2024-01-27T03:35:21;27.85;;;3.15;;
61840;SDS011;47773;53.174;6.614;2024-01-27T03:37:46;28.38;;;2.92;;
61840;SDS011;47773;53.174;6.614;2024-01-27T03:40:12;15.05;;;3.00;;
61840;SDS011;47773;53.174;6.614;2024-01-27T03:42:38;24.88;;;2.80;;
61840;SDS011;47773;53.174;6.614;2024-01-27T03:45:04;20.35;;;2.88;;
61840;SDS011;47773;53.174;6.614;2024-01-27T03:47:30;25.55;;;3.13;;
61840;SDS011;47773;53.174;6.614;2024-01-27T03:49:55;16.13;;;2.05;;
61840;SDS011;47773;53.174;6.614;2024-01-27T03:52:21;17.77;;;2.17;;
61840;SDS011;47773;53.174;6.614;2024-01-27T03:54:47;18.42;;;2.65;;
61840;SDS011;47773;53.174;6.614;2024-01-27T03:57:12;17.15;;;2.35;;
61840;SDS011;47773;53.174;6.614;2024-01-27T03:59:39;15.55;;;2.55;;
61840;SDS011;47773;53.174;6.614;2024-01-27T04:02:06;32.53;;;3.83;;
61840;SDS011;47773;53.174;6.614;2024-01-27T04:04:32;23.90;;;3.20;;
61840;SDS011;47773;53.174;6.614;2024-01-27T04:06:57;22.23;;;3.05;;
61840;SDS011;47773;53.174;6.614;2024-01-27T04:09:23;25.00;;;3.00;;
61840;SDS011;47773;53.174;6.614;2024-01-27T04:11:49;19.17;;;2.85;;
61840;SDS011;47773;53.174;6.614;2024-01-27T04:14:15;26.48;;;3.53;;
61840;SDS011;47773;53.174;6.614;2024-01-27T04:16:40;21.05;;;2.30;;
61840;SDS011;47773;53.174;6.614;2024-01-27T04:19:06;28.23;;;2.85;;
61840;SDS011;47773;53.174;6.614;2024-01-27T04:21:32;18.02;;;2.72;;
61840;SDS011;47773;53.174;6.614;2024-01-27T04:23:58;14.50;;;2.83;;
61840;SDS011;47773;53.174;6.614;2024-01-27T04:26:23;23.45;;;3.08;;
61840;SDS011;47773;53.174;6.614;2024-01-27T04:28:49;19.55;;;2.38;;
61840;SDS011;47773;53.174;6.614;2024-01-27T04:31:14;20.20;;;2.78;;
61840;SDS011;47773;53.174;6.614;2024-01-27T04:33:40;21.52;;;2.10;;
61840;SDS011;47773;53.174;6.614;2024-01-27T04:36:06;23.80;;;2.20;;
61840;SDS011;47773;53.174;6.614;2024-01-27T04:38:32;21.58;;;3.17;;
61840;SDS011;47773;53.174;6.614;2024-01-27T04:40:58;27.48;;;2.75;;
61840;SDS011;47773;53.174;6.614;2024-01-27T04:43:23;23.58;;;2.90;;
61840;SDS011;47773;53.174;6.614;2024-01-27T04:45:49;21.63;;;2.92;;
61840;SDS011;47773;53.174;6.614;2024-01-27T04:48:15;20.13;;;2.25;;
61840;SDS011;47773;53.174;6.614;2024-01-27T04:50:40;20.75;;;2.65;;
61840;SDS011;47773;53.174;6.614;2024-01-27T04:53:06;20.48;;;2.08;;
61840;SDS011;47773;53.174;6.614;2024-01-27T04:55:32;17.42;;;2.13;;
61840;SDS011;47773;53.174;6.614;2024-01-27T04:57:57;18.95;;;2.60;;
61840;SDS011;47773;53.174;6.614;2024-01-27T05:00:23;23.60;;;3.00;;
61840;SDS011;47773;53.174;6.614;2024-01-27T05:02:51;19.63;;;2.83;;
61840;SDS011;47773;53.174;6.614;2024-01-27T05:05:17;18.77;;;2.38;;
61840;SDS011;47773;53.174;6.614;2024-01-27T05:07:43;21.95;;;2.95;;
61840;SDS011;47773;53.174;6.614;2024-01-27T05:10:12;26.40;;;3.08;;
61840;SDS011;47773;53.174;6.614;2024-01-27T05:12:38;31.80;;;2.85;;
61840;SDS011;47773;53.174;6.614;2024-01-27T05:15:03;20.75;;;3.10;;
61840;SDS011;47773;53.174;6.614;2024-01-27T05:17:30;18.15;;;2.17;;
61840;SDS011;47773;53.174;6.614;2024-01-27T05:19:55;16.95;;;2.17;;
61840;SDS011;47773;53.174;6.614;2024-01-27T05:22:22;22.98;;;2.85;;
61840;SDS011;47773;53.174;6.614;2024-01-27T05:24:48;16.02;;;2.42;;
61840;SDS011;47773;53.174;6.614;2024-01-27T05:27:13;27.30;;;4.03;;
61840;SDS011;47773;53.174;6.614;2024-01-27T05:29:39;23.67;;;2.30;;
61840;SDS011;47773;53.174;6.614;2024-01-27T05:32:05;19.67;;;2.53;;
61840;SDS011;47773;53.174;6.614;2024-01-27T05:34:31;13.20;;;2.63;;
61840;SDS011;47773;53.174;6.614;2024-01-27T05:36:56;21.90;;;2.33;;
61840;SDS011;47773;53.174;6.614;2024-01-27T05:39:22;20.83;;;2.55;;
61840;SDS011;47773;53.174;6.614;2024-01-27T05:41:47;18.10;;;2.67;;
61840;SDS011;47773;53.174;6.614;2024-01-27T05:44:13;21.88;;;2.97;;
61840;SDS011;47773;53.174;6.614;2024-01-27T05:46:39;15.45;;;2.90;;
61840;SDS011;47773;53.174;6.614;2024-01-27T05:49:04;24.27;;;1.92;;
61840;SDS011;47773;53.174;6.614;2024-01-27T05:51:30;10.43;;;2.10;;
61840;SDS011;47773;53.174;6.614;2024-01-27T05:53:56;15.23;;;2.30;;
61840;SDS011;47773;53.174;6.614;2024-01-27T05:56:21;20.98;;;2.60;;
61840;SDS011;47773;53.174;6.614;2024-01-27T05:58:47;21.40;;;2.50;;
61840;SDS011;47773;53.174;6.614;2024-01-27T06:01:13;26.42;;;2.35;;
61840;SDS011;47773;53.174;6.614;2024-01-27T06:03:41;22.05;;;2.60;;
61840;SDS011;47773;53.174;6.614;2024-01-27T06:06:07;17.08;;;3.15;;
61840;SDS011;47773;53.174;6.614;2024-01-27T06:08:33;19.52;;;3.28;;
61840;SDS011;47773;53.174;6.614;2024-01-27T06:10:58;18.13;;;2.40;;
61840;SDS011;47773;53.174;6.614;2024-01-27T06:13:24;14.23;;;1.88;;
61840;SDS011;47773;53.174;6.614;2024-01-27T06:15:50;25.08;;;2.90;;
61840;SDS011;47773;53.174;6.614;2024-01-27T06:18:16;19.08;;;2.60;;
61840;SDS011;47773;53.174;6.614;2024-01-27T06:20:41;20.95;;;2.95;;
61840;SDS011;47773;53.174;6.614;2024-01-27T06:23:07;25.00;;;3.03;;
61840;SDS011;47773;53.174;6.614;2024-01-27T06:25:33;21.92;;;2.38;;
61840;SDS011;47773;53.174;6.614;2024-01-27T06:27:59;19.95;;;2.38;;
61840;SDS011;47773;53.174;6.614;2024-01-27T06:30:26;18.02;;;2.63;;
61840;SDS011;47773;53.174;6.614;2024-01-27T06:32:52;22.98;;;2.35;;
61840;SDS011;47773;53.174;6.614;2024-01-27T06:35:17;26.35;;;2.80;;
61840;SDS011;47773;53.174;6.614;2024-01-27T06:37:43;21.23;;;3.53;;
61840;SDS011;47773;53.174;6.614;2024-01-27T06:40:09;19.17;;;2.50;;
61840;SDS011;47773;53.174;6.614;2024-01-27T06:42:35;29.10;;;3.72;;
61840;SDS011;47773;53.174;6.614;2024-01-27T06:45:01;19.13;;;3.10;;
61840;SDS011;47773;53.174;6.614;2024-01-27T06:47:26;23.23;;;2.90;;
61840;SDS011;47773;53.174;6.614;2024-01-27T06:49:52;19.50;;;2.75;;
61840;SDS011;47773;53.174;6.614;2024-01-27T06:52:18;20.17;;;2.20;;
61840;SDS011;47773;53.174;6.614;2024-01-27T06:54:43;18.13;;;2.47;;
61840;SDS011;47773;53.174;6.614;2024-01-27T06:57:18;15.88;;;2.53;;
61840;SDS011;47773;53.174;6.614;2024-01-27T06:59:45;23.98;;;2.63;;
61840;SDS011;47773;53.174;6.614;2024-01-27T07:02:26;20.08;;;2.50;;
61840;SDS011;47773;53.174;6.614;2024-01-27T07:04:53;16.77;;;2.67;;
61840;SDS011;47773;53.174;6.614;2024-01-27T07:07:22;13.27;;;2.70;;
61840;SDS011;47773;53.174;6.614;2024-01-27T07:09:50;20.45;;;2.63;;
61840;SDS011;47773;53.174;6.614;2024-01-27T07:12:15;27.08;;;3.30;;
61840;SDS011;47773;53.174;6.614;2024-01-27T07:14:41;29.83;;;4.10;;
61840;SDS011;47773;53.174;6.614;2024-01-27T07:17:07;27.98;;;2.95;;
61840;SDS011;47773;53.174;6.614;2024-01-27T07:19:32;22.58;;;3.75;;
61840;SDS011;47773;53.174;6.614;2024-01-27T07:21:58;18.88;;;2.67;;
61840;SDS011;47773;53.174;6.614;2024-01-27T07:24:25;15.20;;;3.00;;
61840;SDS011;47773;53.174;6.614;2024-01-27T07:26:51;25.30;;;2.95;;
61840;SDS011;47773;53.174;6.614;2024-01-27T07:29:16;25.80;;;3.20;;
61840;SDS011;47773;53.174;6.614;2024-01-27T07:31:42;19.70;;;3.65;;
61840;SDS011;47773;53.174;6.614;2024-01-27T07:34:08;21.42;;;3.03;;
61840;SDS011;47773;53.174;6.614;2024-01-27T07:36:33;17.17;;;2.80;;
61840;SDS011;47773;53.174;6.614;2024-01-27T07:38:59;21.58;;;3.28;;
61840;SDS011;47773;53.174;6.614;2024-01-27T07:41:25;27.48;;;3.22;;
61840;SDS011;47773;53.174;6.614;2024-01-27T07:43:51;19.38;;;3.55;;
61840;SDS011;47773;53.174;6.614;2024-01-27T07:46:16;17.92;;;2.70;;
61840;SDS011;47773;53.174;6.614;2024-01-27T07:48:47;31.23;;;3.13;;
61840;SDS011;47773;53.174;6.614;2024-01-27T07:51:13;29.67;;;3.47;;
61840;SDS011;47773;53.174;6.614;2024-01-27T07:53:38;22.63;;;3.30;;
61840;SDS011;47773;53.174;6.614;2024-01-27T07:56:05;22.48;;;4.15;;
61840;SDS011;47773;53.174;6.614;2024-01-27T07:58:31;19.77;;;3.05;;
61840;SDS011;47773;53.174;6.614;2024-01-27T08:00:57;24.08;;;3.25;;
61840;SDS011;47773;53.174;6.614;2024-01-27T08:03:22;28.15;;;3.40;;
61840;SDS011;47773;53.174;6.614;2024-01-27T08:05:48;14.30;;;2.92;;
61840;SDS011;47773;53.174;6.614;2024-01-27T08:08:14;22.20;;;3.90;;
61840;SDS011;47773;53.174;6.614;2024-01-27T08:10:39;22.98;;;3.30;;
61840;SDS011;47773;53.174;6.614;2024-01-27T08:13:05;23.80;;;3.53;;
61840;SDS011;47773;53.174;6.614;2024-01-27T08:15:32;20.75;;;2.78;;
61840;SDS011;47773;53.174;6.614;2024-01-27T08:17:57;20.80;;;3.10;;
61840;SDS011;47773;53.174;6.614;2024-01-27T08:20:23;20.23;;;3.75;;
61840;SDS011;47773;53.174;6.614;2024-01-27T08:22:49;19.45;;;3.38;;
61840;SDS011;47773;53.174;6.614;2024-01-27T08:25:16;24.83;;;4.22;;
61840;SDS011;47773;53.174;6.614;2024-01-27T08:27:43;20.50;;;3.60;;
61840;SDS011;47773;53.174;6.614;2024-01-27T08:30:08;23.10;;;4.03;;
61840;SDS011;47773;53.174;6.614;2024-01-27T08:32:35;15.48;;;2.92;;
61840;SDS011;47773;53.174;6.614;2024-01-27T08:35:01;28.10;;;3.58;;
61840;SDS011;47773;53.174;6.614;2024-01-27T08:37:26;24.60;;;4.20;;
61840;SDS011;47773;53.174;6.614;2024-01-27T08:39:52;22.55;;;3.55;;
61840;SDS011;47773;53.174;6.614;2024-01-27T08:42:18;28.67;;;3.25;;
61840;SDS011;47773;53.174;6.614;2024-01-27T08:44:44;29.73;;;4.53;;
61840;SDS011;47773;53.174;6.614;2024-01-27T08:47:09;28.17;;;5.03;;
61840;SDS011;47773;53.174;6.614;2024-01-27T08:49:35;18.67;;;3.50;;
61840;SDS011;47773;53.174;6.614;2024-01-27T08:52:00;23.38;;;4.20;;
61840;SDS011;47773;53.174;6.614;2024-01-27T08:54:26;25.77;;;3.60;;
61840;SDS011;47773;53.174;6.614;2024-01-27T08:56:52;26.40;;;4.72;;
61840;SDS011;47773;53.174;6.614;2024-01-27T08:59:17;23.17;;;4.13;;
61840;SDS011;47773;53.174;6.614;2024-01-27T09:01:43;21.10;;;4.72;;
61840;SDS011;47773;53.174;6.614;2024-01-27T09:04:09;32.45;;;4.63;;
61840;SDS011;47773;53.174;6.614;2024-01-27T09:06:34;20.17;;;4.00;;
61840;SDS011;47773;53.174;6.614;2024-01-27T09:09:00;29.48;;;4.88;;
61840;SDS011;47773;53.174;6.614;2024-01-27T09:11:26;21.88;;;4.65;;
61840;SDS011;47773;53.174;6.614;2024-01-27T09:13:55;19.67;;;4.65;;
61840;SDS011;47773;53.174;6.614;2024-01-27T09:16:21;21.23;;;4.57;;
61840;SDS011;47773;53.174;6.614;2024-01-27T09:18:46;23.10;;;5.13;;
61840;SDS011;47773;53.174;6.614;2024-01-27T09:21:14;24.23;;;4.85;;
61840;SDS011;47773;53.174;6.614;2024-01-27T09:23:45;24.02;;;5.50;;
61840;SDS011;47773;53.174;6.614;2024-01-27T09:26:12;23.83;;;4.97;;
61840;SDS011;47773;53.174;6.614;2024-01-27T09:28:38;25.55;;;6.15;;
61840;SDS011;47773;53.174;6.614;2024-01-27T09:31:09;24.15;;;5.50;;
61840;SDS011;47773;53.174;6.614;2024-01-27T09:33:35;22.42;;;5.55;;
61840;SDS011;47773;53.174;6.614;2024-01-27T09:36:01;23.58;;;6.63;;
61840;SDS011;47773;53.174;6.614;2024-01-27T09:38:27;29.20;;;5.70;;
61840;SDS011;47773;53.174;6.614;2024-01-27T09:40:53;19.10;;;5.00;;
61840;SDS011;47773;53.174;6.614;2024-01-27T09:43:19;19.30;;;5.10;;
61840;SDS011;47773;53.174;6.614;2024-01-27T09:45:46;22.60;;;5.50;;
61840;SDS011;47773;53.174;6.614;2024-01-27T09:48:12;23.65;;;4.95;;
61840;SDS011;47773;53.174;6.614;2024-01-27T09:50:41;20.95;;;6.15;;
61840;SDS011;47773;53.174;6.614;2024-01-27T09:53:08;25.33;;;5.05;;
61840;SDS011;47773;53.174;6.614;2024-01-27T09:55:35;25.80;;;6.55;;
61840;SDS011;47773;53.174;6.614;2024-01-27T09:58:01;22.70;;;5.60;;
61840;SDS011;47773;53.174;6.614;2024-01-27T10:00:28;34.22;;;5.70;;
61840;SDS011;47773;53.174;6.614;2024-01-27T10:02:54;18.98;;;5.32;;
61840;SDS011;47773;53.174;6.614;2024-01-27T10:05:21;19.58;;;5.70;;
61840;SDS011;47773;53.174;6.614;2024-01-27T10:07:48;21.58;;;5.15;;
61840;SDS011;47773;53.174;6.614;2024-01-27T10:10:14;20.23;;;4.80;;
61840;SDS011;47773;53.174;6.614;2024-01-27T10:12:40;21.65;;;6.00;;
61840;SDS011;47773;53.174;6.614;2024-01-27T10:15:17;26.85;;;6.22;;
61840;SDS011;47773;53.174;6.614;2024-01-27T10:17:44;20.05;;;5.25;;
61840;SDS011;47773;53.174;6.614;2024-01-27T10:20:11;26.15;;;5.30;;
61840;SDS011;47773;53.174;6.614;2024-01-27T10:22:40;23.60;;;5.22;;
61840;SDS011;47773;53.174;6.614;2024-01-27T10:25:07;24.48;;;5.97;;
61840;SDS011;47773;53.174;6.614;2024-01-27T10:27:33;28.88;;;7.20;;
61840;SDS011;47773;53.174;6.614;2024-01-27T10:29:59;34.10;;;6.22;;
61840;SDS011;47773;53.174;6.614;2024-01-27T10:32:25;19.45;;;5.05;;
61840;SDS011;47773;53.174;6.614;2024-01-27T10:35:06;18.75;;;5.05;;
61840;SDS011;47773;53.174;6.614;2024-01-27T10:37:36;24.33;;;6.10;;
61840;SDS011;47773;53.174;6.614;2024-01-27T10:40:03;26.50;;;6.30;;
61840;SDS011;47773;53.174;6.614;2024-01-27T10:42:30;22.90;;;5.53;;
61840;SDS011;47773;53.174;6.614;2024-01-27T10:44:59;17.70;;;5.60;;
61840;SDS011;47773;53.174;6.614;2024-01-27T10:47:29;24.88;;;5.88;;
61840;SDS011;47773;53.174;6.614;2024-01-27T10:49:56;22.70;;;5.45;;
61840;SDS011;47773;53.174;6.614;2024-01-27T10:52:24;22.30;;;5.68;;
61840;SDS011;47773;53.174;6.614;2024-01-27T10:55:00;28.40;;;5.50;;
61840;SDS011;47773;53.174;6.614;2024-01-27T10:57:32;22.65;;;4.88;;
61840;SDS011;47773;53.174;6.614;2024-01-27T11:00:00;25.17;;;5.53;;
61840;SDS011;47773;53.174;6.614;2024-01-27T11:02:28;28.38;;;5.13;;
61840;SDS011;47773;53.174;6.614;2024-01-27T11:04:58;22.55;;;5.13;;
61840;SDS011;47773;53.174;6.614;2024-01-27T11:07:29;24.50;;;5.40;;
61840;SDS011;47773;53.174;6.614;2024-01-27T11:09:59;20.70;;;5.93;;
61840;SDS011;47773;53.174;6.614;2024-01-27T11:12:25;22.13;;;5.43;;
61840;SDS011;47773;53.174;6.614;2024-01-27T11:14:51;30.42;;;5.70;;
61840;SDS011;47773;53.174;6.614;2024-01-27T11:17:18;20.30;;;5.85;;
61840;SDS011;47773;53.174;6.614;2024-01-27T11:19:44;24.77;;;5.03;;
61840;SDS011;47773;53.174;6.614;2024-01-27T11:22:27;27.05;;;5.45;;
61840;SDS011;47773;53.174;6.614;2024-01-27T11:25:05;21.70;;;5.30;;
61840;SDS011;47773;53.174;6.614;2024-01-27T11:27:34;29.48;;;5.35;;
61840;SDS011;47773;53.174;6.614;2024-01-27T11:30:00;25.00;;;5.03;;
61840;SDS011;47773;53.174;6.614;2024-01-27T11:32:26;19.23;;;4.93;;
61840;SDS011;47773;53.174;6.614;2024-01-27T11:34:52;31.38;;;5.03;;
61840;SDS011;47773;53.174;6.614;2024-01-27T11:37:18;28.52;;;5.70;;
61840;SDS011;47773;53.174;6.614;2024-01-27T11:39:50;27.23;;;5.30;;
61840;SDS011;47773;53.174;6.614;2024-01-27T11:42:17;20.30;;;4.32;;
61840;SDS011;47773;53.174;6.614;2024-01-27T11:44:43;22.08;;;4.80;;
61840;SDS011;47773;53.174;6.614;2024-01-27T11:47:15;18.30;;;5.07;;
61840;SDS011;47773;53.174;6.614;2024-01-27T11:49:43;27.15;;;6.22;;
61840;SDS011;47773;53.174;6.614;2024-01-27T11:52:15;19.50;;;4.78;;
61840;SDS011;47773;53.174;6.614;2024-01-27T11:54:40;21.33;;;4.40;;
61840;SDS011;47773;53.174;6.614;2024-01-27T11:57:06;27.88;;;5.55;;
61840;SDS011;47773;53.174;6.614;2024-01-27T11:59:33;25.92;;;5.22;;
61840;SDS011;47773;53.174;6.614;2024-01-27T12:01:59;19.60;;;4.80;;
61840;SDS011;47773;53.174;6.614;2024-01-27T12:04:26;31.50;;;5.05;;
61840;SDS011;47773;53.174;6.614;2024-01-27T12:06:52;24.65;;;4.90;;
61840;SDS011;47773;53.174;6.614;2024-01-27T12:09:19;19.77;;;4.32;;
61840;SDS011;47773;53.174;6.614;2024-01-27T12:11:45;27.73;;;4.60;;
61840;SDS011;47773;53.174;6.614;2024-01-27T12:14:11;26.95;;;5.50;;
61840;SDS011;47773;53.174;6.614;2024-01-27T12:16:37;20.15;;;4.32;;
61840;SDS011;47773;53.174;6.614;2024-01-27T12:19:03;22.15;;;4.35;;
61840;SDS011;47773;53.174;6.614;2024-01-27T12:21:29;28.80;;;4.38;;
61840;SDS011;47773;53.174;6.614;2024-01-27T12:23:56;25.50;;;4.13;;
61840;SDS011;47773;53.174;6.614;2024-01-27T12:26:24;25.10;;;3.90;;
61840;SDS011;47773;53.174;6.614;2024-01-27T12:28:51;23.67;;;3.90;;
61840;SDS011;47773;53.174;6.614;2024-01-27T12:31:17;24.88;;;4.20;;
61840;SDS011;47773;53.174;6.614;2024-01-27T12:33:53;24.98;;;3.58;;
61840;SDS011;47773;53.174;6.614;2024-01-27T12:36:20;20.65;;;3.67;;
61840;SDS011;47773;53.174;6.614;2024-01-27T12:38:53;23.85;;;3.78;;
61840;SDS011;47773;53.174;6.614;2024-01-27T12:41:20;20.70;;;3.50;;
61840;SDS011;47773;53.174;6.614;2024-01-27T12:43:46;24.05;;;4.07;;
61840;SDS011;47773;53.174;6.614;2024-01-27T12:46:11;25.05;;;5.15;;
61840;SDS011;47773;53.174;6.614;2024-01-27T12:48:37;21.25;;;3.95;;
61840;SDS011;47773;53.174;6.614;2024-01-27T12:51:04;18.80;;;3.85;;
61840;SDS011;47773;53.174;6.614;2024-01-27T12:53:29;27.60;;;5.22;;
61840;SDS011;47773;53.174;6.614;2024-01-27T12:55:55;19.95;;;4.18;;
61840;SDS011;47773;53.174;6.614;2024-01-27T12:58:21;25.63;;;3.92;;
61840;SDS011;47773;53.174;6.614;2024-01-27T13:00:47;27.40;;;4.15;;
61840;SDS011;47773;53.174;6.614;2024-01-27T13:03:13;24.85;;;4.10;;
61840;SDS011;47773;53.174;6.614;2024-01-27T13:05:38;26.63;;;4.78;;
61840;SDS011;47773;53.174;6.614;2024-01-27T13:08:04;26.23;;;4.40;;
61840;SDS011;47773;53.174;6.614;2024-01-27T13:10:30;13.68;;;3.53;;
61840;SDS011;47773;53.174;6.614;2024-01-27T13:12:56;22.63;;;4.50;;
61840;SDS011;47773;53.174;6.614;2024-01-27T13:15:23;22.17;;;4.13;;
61840;SDS011;47773;53.174;6.614;2024-01-27T13:17:50;18.45;;;3.95;;
61840;SDS011;47773;53.174;6.614;2024-01-27T13:20:16;18.50;;;3.03;;
61840;SDS011;47773;53.174;6.614;2024-01-27T13:22:42;16.15;;;3.20;;
61840;SDS011;47773;53.174;6.614;2024-01-27T13:25:08;22.10;;;3.58;;
61840;SDS011;47773;53.174;6.614;2024-01-27T13:27:34;22.25;;;4.15;;
61840;SDS011;47773;53.174;6.614;2024-01-27T13:30:00;28.80;;;4.55;;
61840;SDS011;47773;53.174;6.614;2024-01-27T13:32:25;26.80;;;3.88;;
61840;SDS011;47773;53.174;6.614;2024-01-27T13:34:51;21.23;;;3.35;;
61840;SDS011;47773;53.174;6.614;2024-01-27T13:37:17;23.98;;;4.07;;
61840;SDS011;47773;53.174;6.614;2024-01-27T13:39:43;18.98;;;3.78;;
61840;SDS011;47773;53.174;6.614;2024-01-27T13:42:10;23.35;;;3.88;;
61840;SDS011;47773;53.174;6.614;2024-01-27T13:44:36;24.05;;;4.40;;
61840;SDS011;47773;53.174;6.614;2024-01-27T13:47:02;22.48;;;3.75;;
61840;SDS011;47773;53.174;6.614;2024-01-27T13:49:29;29.10;;;4.47;;
61840;SDS011;47773;53.174;6.614;2024-01-27T13:51:56;24.55;;;4.00;;
61840;SDS011;47773;53.174;6.614;2024-01-27T13:54:22;18.30;;;3.63;;
61840;SDS011;47773;53.174;6.614;2024-01-27T13:56:47;23.75;;;3.40;;
61840;SDS011;47773;53.174;6.614;2024-01-27T13:59:13;19.00;;;3.35;;
61840;SDS011;47773;53.174;6.614;2024-01-27T14:01:39;25.63;;;3.80;;
61840;SDS011;47773;53.174;6.614;2024-01-27T14:04:04;18.13;;;3.60;;
61840;SDS011;47773;53.174;6.614;2024-01-27T14:06:32;28.48;;;4.40;;
61840;SDS011;47773;53.174;6.614;2024-01-27T14:08:58;20.13;;;4.03;;
61840;SDS011;47773;53.174;6.614;2024-01-27T14:11:24;22.23;;;3.45;;
61840;SDS011;47773;53.174;6.614;2024-01-27T14:13:50;19.23;;;3.33;;
61840;SDS011;47773;53.174;6.614;2024-01-27T14:16:16;17.67;;;3.45;;
61840;SDS011;47773;53.174;6.614;2024-01-27T14:18:41;17.17;;;3.60;;
61840;SDS011;47773;53.174;6.614;2024-01-27T14:21:07;20.52;;;3.10;;
61840;SDS011;47773;53.174;6.614;2024-01-27T14:23:33;23.38;;;3.25;;
61840;SDS011;47773;53.174;6.614;2024-01-27T14:25:58;22.50;;;3.08;;
61840;SDS011;47773;53.174;6.614;2024-01-27T14:28:24;27.75;;;3.90;;